ENVD

Vadsø Airport

Vadsø, Norway
METAR ENVD 231050Z 12012KT 9999 SCT020 M09/M14 Q1013
Observed Flight Rules
Jan-23 @ 10:50 UTC (an hour ago) Visual Flight Rules
Wind Visibility Clouds
120° at 12 knots 10,000+ meters
  • Scattered at 2,000' AGL
Temperatures Readings
Current -9°C / 16°F
Dewpoint -14°C / 7°F
Humidity 67%
Altimeter 29.91" Hg
Pressure 1013 hPa
Elevation 39
METAR ENVD 231050Z 12012KT 9999 SCT020 M09/M14 Q1013
Observed Flight Rules
Jan-23 @ 10:50 UTC
(an hour ago)
VFR
Wind Visibility
120° at 12 knots 10,000+ meters
Clouds
  • Scattered at 2,000' AGL
Temperature Dewpoint
-9°C / 16°F -14°C / 7°F
Humidity Altimeter Pressure
67% 29.91" Hg 1013 hPa